Etusivu
METAR-TAF:

METAR-TAF

Lentoasemat :

Wake Island, Yhdysvallat

Leveyspiiri: 19-17N, Pituuspiiri: 166-39E, korkeus merenpinnasta: 4 m

Tämänhetkinen sää

Tämä raportti tehtiin 26 minuuttia sitten, kello 13.55 UTC
Tuuli 14 kn koillisesta
Lämpötila 27°C
Kosteus 79%
Ilmanpaine 1015 hPa
Näkyvyys: 16.1 km
Hajanaisia pilviä 1800 ft:n korkeudessa

METAR: PWAK 121355Z AUTO 05014KT 10SM SCT018 27/23 A2998 RMK AO2 SLP158 T02670229

Aika: 02:21 (14:21 UTC)

Sääennuste

Tämä raportti tehtiin 21 minuuttia sitten, kello 14.00 UTC
Ennuste voimassa 12. päivästä klo 14 UTC - 13. päivään klo 20 UTC
Tuuli 12 kn idästä/koillisesta
Näkyvyys 10 km tai enemmän
Muutamia pilviä 2500 ft:n korkeudessa
Hajonneita pilviä 5000 ft:n korkeudessa

TAF: PWAK 121400Z 1214/1320 07012KT 9999 FEW025 BKN050 QNH2986INS TX30/1223Z TN26/1217Z FOR MIL USE ONLY

Säähavainnot ja -ennusteet yli 4000 lentoasemalta (METAR- ja TAF-raportit).

Käytössä olevat sääasemat on merkitty karttaan keltaisilla ja punaisilla pisteillä.

Aseta hiiri pisteen päälle nähdäksesi sääaseman nimen.

Klikkaa sitten nähdäksesi säähavainnot ja -ennusteet.

Kartan vaihtaminen: klikkaa mustalla rastilla varustettuja vihreitä pisteitä, niin voit zoomata sisään; viivalla varustettua vihreää pistettä, niin voit zoomata ulos tai vihreitä nuolia, niin pääset viereisille kartoille.


METAR-TAF: